Baton Rouge — 2CZZ7 — position and weather

sailwx.info

Track history (hours):
 
Tides and Currents Weather Stations Pressure Air Temp Water Temp Dewpoint Dewpoint Depression Visibility Wind Speed Wind Dir Waves Ship Positions

Baton Rouge

Last reported at 2016-Aug-29 17:33 UTC. Time now 2016-Aug-29 18:04 UTC.
Position N 36°23' W 002°31'.

Length 62 m; draft 3.7 m.

Type: Pleasure craft. MMSI: 235077185.

Date/timePositionNaut miles runAvg speedWind from/ knotsBaromVisibWave heightAir tempDewpointWater temp
2016-Aug-29 17:33N 36°23' W 002°31'1212.3
2016-Aug-29 16:33N 36°24' W 002°16'1212.0
2016-Aug-29 15:33N 36°30' W 002°03'1211.9
2016-Aug-29 14:33N 36°39' W 001°52'6111.8
2016-Aug-29 09:21N 37°19' W 000°55'1012.1
2016-Aug-29 08:33N 37°25' W 000°46'10412.8
2016-Aug-29 00:25N 38°50' E 000°33'3712.9
2016-Aug-28 21:33N 39°15' E 001°08'1313.0
2016-Aug-28 20:32N 39°24' E 001°20'2712.8
2016-Aug-28 18:25N 39°42' E 001°46'1112.5
2016-Aug-28 17:33N 39°49' E 001°57'1212.4
2016-Aug-28 16:33N 39°57' E 002°09'1212.5
2016-Aug-28 15:33N 40°06' E 002°21'1312.5
2016-Aug-28 14:33N 40°14' E 002°33'1313.0
2016-Aug-28 13:33N 40°23' E 002°46'1313.3
2016-Aug-28 12:33N 40°32' E 002°58'1913.1
2016-Aug-28 11:08N 40°44' E 003°17'10613.1
2016-Aug-28 03:04N 41°56' E 005°01'4013.3
2016-Aug-28 00:04N 42°23' E 005°41'713.4
2016-Aug-27 23:33N 42°27' E 005°47'4013.4
2016-Aug-27 20:32N 42°54' E 006°28'3213.8
2016-Aug-27 18:15N 43°19' E 006°54'1013.4
2016-Aug-27 17:31N 43°28' E 006°60'5 4.6
2016-Aug-27 16:31N 43°33' E 007°01'0 0.0
2016-Aug-27 15:33N 43°33' E 007°01'0 0.0
2016-Aug-27 14:33N 43°33' E 007°01'0 0.0
2016-Aug-27 13:32N 43°33' E 007°01'0 0.0
2016-Aug-27 12:33N 43°33' E 007°01'0 0.0
2016-Aug-27 11:33N 43°33' E 007°01'0 0.0
2016-Aug-27 10:27N 43°33' E 007°01'0 0.0
2016-Aug-27 09:31N 43°33' E 007°01'0 0.0
2016-Aug-27 08:27N 43°33' E 007°01'0 0.0
2016-Aug-27 07:33N 43°33' E 007°01'0 0.0
2016-Aug-27 06:33N 43°33' E 007°01'0 0.0
2016-Aug-26 17:33N 43°33' E 007°01'0 0.0
2016-Aug-26 16:33N 43°33' E 007°01'0 0.0
2016-Aug-26 15:32N 43°33' E 007°01'0 0.0
2016-Aug-26 14:29N 43°33' E 007°01'0 0.0
2016-Aug-26 13:33N 43°33' E 007°01'0 0.0
2016-Aug-26 12:33N 43°33' E 007°01'0 0.0
2016-Aug-26 11:33N 43°33' E 007°01'0 0.0
2016-Aug-26 10:33N 43°33' E 007°01'1 0.9
2016-Aug-26 09:33N 43°32' E 007°02'0 0.0
2016-Aug-26 08:33N 43°32' E 007°02'0 0.0
2016-Aug-26 07:34N 43°32' E 007°02'0 0.0
2016-Aug-26 06:31N 43°32' E 007°02'0 0.0
2016-Aug-26 04:33N 43°32' E 007°02'0 0.0
2016-Aug-26 03:33N 43°32' E 007°02'0 0.0
2016-Aug-26 02:33N 43°32' E 007°02'0 0.0
2016-Aug-26 01:33N 43°32' E 007°02'0 0.0
2016-Aug-26 00:33N 43°32' E 007°02'0 0.0
2016-Aug-25 23:33N 43°32' E 007°02'0 0.0
2016-Aug-25 22:33N 43°32' E 007°02'0 0.0
2016-Aug-25 21:33N 43°32' E 007°02'0 0.0
2016-Aug-25 20:33N 43°32' E 007°02'0 0.0
2016-Aug-25 19:33N 43°32' E 007°02'0 0.0
2016-Aug-25 18:33N 43°32' E 007°02'0 0.0
2016-Aug-25 17:33N 43°32' E 007°02'0 0.0
2016-Aug-25 16:33N 43°32' E 007°02'0 0.0
2016-Aug-25 15:33N 43°32' E 007°02'0 0.0
2016-Aug-25 14:33N 43°32' E 007°02'0 0.0
2016-Aug-25 13:33N 43°32' E 007°02'0 0.0
2016-Aug-25 12:33N 43°32' E 007°02'0 0.0
2016-Aug-25 11:33N 43°32' E 007°02'0 0.0
2016-Aug-25 10:33N 43°32' E 007°02'0 0.5
2016-Aug-25 09:33N 43°32' E 007°01'4 3.2
2016-Aug-25 08:24N 43°31' E 006°57'0 0.0
2016-Aug-25 07:09N 43°31' E 006°57'0 0.0
2016-Aug-25 06:30N 43°31' E 006°57'0 0.0
2016-Aug-25 04:33N 43°31' E 006°57'0 0.0
2016-Aug-25 03:30N 43°31' E 006°57'0 0.0
2016-Aug-25 02:33N 43°31' E 006°57'0 0.0
2016-Aug-25 01:33N 43°31' E 006°57'0 0.0
2016-Aug-25 00:24N 43°31' E 006°57'0 0.0
2016-Aug-24 23:21N 43°31' E 006°57'0 0.0
2016-Aug-24 22:33N 43°31' E 006°57'0 0.0
2016-Aug-24 21:33N 43°31' E 006°57'0 0.0
2016-Aug-24 20:30N 43°31' E 006°57'0 0.0
2016-Aug-24 19:30N 43°31' E 006°57'0 0.0
2016-Aug-24 18:24N 43°31' E 006°57'36 2.3
2016-Aug-24 03:16N 42°59' E 007°18'1212.8
2016-Aug-24 02:19N 42°52' E 007°32'1113.1
2016-Aug-24 01:28N 42°45' E 007°44'  
Track history (hours):
 
Tides and Currents Weather Stations Pressure Air Temp Water Temp Dewpoint Dewpoint Depression Visibility Wind Speed Wind Dir Waves Ship Positions

Baton Rouge

Last reported at 2016-Aug-29 17:33 UTC. Time now 2016-Aug-29 18:04 UTC.
Position N 36°23' W 002°31'.

Length 62 m; draft 3.7 m.

Type: Pleasure craft. MMSI: 235077185.

Date/timePositionNaut miles runAvg speedWind from/ knotsBaromVisibWave heightAir tempDewpointWater temp
2016-Aug-29 17:33N 36°23' W 002°31'1212.3
2016-Aug-29 16:33N 36°24' W 002°16'1212.0
2016-Aug-29 15:33N 36°30' W 002°03'1211.9
2016-Aug-29 14:33N 36°39' W 001°52'6111.8
2016-Aug-29 09:21N 37°19' W 000°55'1012.1
2016-Aug-29 08:33N 37°25' W 000°46'10412.8
2016-Aug-29 00:25N 38°50' E 000°33'3712.9
2016-Aug-28 21:33N 39°15' E 001°08'1313.0
2016-Aug-28 20:32N 39°24' E 001°20'2712.8
2016-Aug-28 18:25N 39°42' E 001°46'1112.5
2016-Aug-28 17:33N 39°49' E 001°57'1212.4
2016-Aug-28 16:33N 39°57' E 002°09'1212.5
2016-Aug-28 15:33N 40°06' E 002°21'1312.5
2016-Aug-28 14:33N 40°14' E 002°33'1313.0
2016-Aug-28 13:33N 40°23' E 002°46'1313.3
2016-Aug-28 12:33N 40°32' E 002°58'1913.1
2016-Aug-28 11:08N 40°44' E 003°17'10613.1
2016-Aug-28 03:04N 41°56' E 005°01'4013.3
2016-Aug-28 00:04N 42°23' E 005°41'713.4
2016-Aug-27 23:33N 42°27' E 005°47'4013.4
2016-Aug-27 20:32N 42°54' E 006°28'3213.8
2016-Aug-27 18:15N 43°19' E 006°54'1013.4
2016-Aug-27 17:31N 43°28' E 006°60'5 4.6
2016-Aug-27 16:31N 43°33' E 007°01'0 0.0
2016-Aug-27 15:33N 43°33' E 007°01'0 0.0
2016-Aug-27 14:33N 43°33' E 007°01'0 0.0
2016-Aug-27 13:32N 43°33' E 007°01'0 0.0
2016-Aug-27 12:33N 43°33' E 007°01'0 0.0
2016-Aug-27 11:33N 43°33' E 007°01'0 0.0
2016-Aug-27 10:27N 43°33' E 007°01'0 0.0
2016-Aug-27 09:31N 43°33' E 007°01'0 0.0
2016-Aug-27 08:27N 43°33' E 007°01'0 0.0
2016-Aug-27 07:33N 43°33' E 007°01'0 0.0
2016-Aug-27 06:33N 43°33' E 007°01'0 0.0
2016-Aug-26 17:33N 43°33' E 007°01'0 0.0
2016-Aug-26 16:33N 43°33' E 007°01'0 0.0
2016-Aug-26 15:32N 43°33' E 007°01'0 0.0
2016-Aug-26 14:29N 43°33' E 007°01'0 0.0
2016-Aug-26 13:33N 43°33' E 007°01'0 0.0
2016-Aug-26 12:33N 43°33' E 007°01'0 0.0
2016-Aug-26 11:33N 43°33' E 007°01'0 0.0
2016-Aug-26 10:33N 43°33' E 007°01'1 0.9
2016-Aug-26 09:33N 43°32' E 007°02'0 0.0
2016-Aug-26 08:33N 43°32' E 007°02'0 0.0
2016-Aug-26 07:34N 43°32' E 007°02'0 0.0
2016-Aug-26 06:31N 43°32' E 007°02'0 0.0
2016-Aug-26 04:33N 43°32' E 007°02'0 0.0
2016-Aug-26 03:33N 43°32' E 007°02'0 0.0
2016-Aug-26 02:33N 43°32' E 007°02'0 0.0
2016-Aug-26 01:33N 43°32' E 007°02'0 0.0
2016-Aug-26 00:33N 43°32' E 007°02'0 0.0
2016-Aug-25 23:33N 43°32' E 007°02'0 0.0
2016-Aug-25 22:33N 43°32' E 007°02'0 0.0
2016-Aug-25 21:33N 43°32' E 007°02'0 0.0
2016-Aug-25 20:33N 43°32' E 007°02'0 0.0
2016-Aug-25 19:33N 43°32' E 007°02'0 0.0
2016-Aug-25 18:33N 43°32' E 007°02'0 0.0
2016-Aug-25 17:33N 43°32' E 007°02'0 0.0
2016-Aug-25 16:33N 43°32' E 007°02'0 0.0
2016-Aug-25 15:33N 43°32' E 007°02'0 0.0
2016-Aug-25 14:33N 43°32' E 007°02'0 0.0
2016-Aug-25 13:33N 43°32' E 007°02'0 0.0
2016-Aug-25 12:33N 43°32' E 007°02'0 0.0
2016-Aug-25 11:33N 43°32' E 007°02'0 0.0
2016-Aug-25 10:33N 43°32' E 007°02'0 0.5
2016-Aug-25 09:33N 43°32' E 007°01'4 3.2
2016-Aug-25 08:24N 43°31' E 006°57'0 0.0
2016-Aug-25 07:09N 43°31' E 006°57'0 0.0
2016-Aug-25 06:30N 43°31' E 006°57'0 0.0
2016-Aug-25 04:33N 43°31' E 006°57'0 0.0
2016-Aug-25 03:30N 43°31' E 006°57'0 0.0
2016-Aug-25 02:33N 43°31' E 006°57'0 0.0
2016-Aug-25 01:33N 43°31' E 006°57'0 0.0
2016-Aug-25 00:24N 43°31' E 006°57'0 0.0
2016-Aug-24 23:21N 43°31' E 006°57'0 0.0
2016-Aug-24 22:33N 43°31' E 006°57'0 0.0
2016-Aug-24 21:33N 43°31' E 006°57'0 0.0
2016-Aug-24 20:30N 43°31' E 006°57'0 0.0
2016-Aug-24 19:30N 43°31' E 006°57'0 0.0
2016-Aug-24 18:24N 43°31' E 006°57'36 2.3
2016-Aug-24 03:16N 42°59' E 007°18'1212.8
2016-Aug-24 02:19N 42°52' E 007°32'1113.1
2016-Aug-24 01:28N 42°45' E 007°44'  

Dump ship's entire track history